Crosswind landing

UnAnswerd

Activity Terminated
Joined
Sep 13, 2004
Posts
607
Total Time
NA
KPFN 101740Z 101818 13025G40KT 3SM -RA BKN018 OVC029 TEMPO 1822 15030G55KT 1SM +RA BR BKN010 OVC015

 

uwochris

Flightinfo's sexiest user
Joined
Dec 21, 2001
Posts
381
Total Time
2500+
Looks like my metar and TAF are better than yours :)

METAR CYXU 102000Z 27005KT 15SM FEW088 FEW300 31/09 A3015 RMK CF1CI1
SLP207=

TAF CYXU 101739Z 101818 30008KT P6SM SKC
BECMG 0002 VRB03KT
 

Kream926

pimpin' aint easy
Joined
Feb 28, 2003
Posts
1,196
Total Time
1.21
UnAnswerd said:
KPFN 101740Z 101818 13025G40KT 3SM -RA BKN018 OVC029 TEMPO 1822 15030G55KT 1SM +RA BR BKN010 OVC015



whats the runway heading?
 

EagleRJ

Are we there yet?
Joined
Nov 27, 2001
Posts
1,490
Total Time
5800
I thought Burritos was banned! Are we having a relapse here?
 

Mmmmmm Burritos

Where mah dogs at?
Joined
Nov 21, 2003
Posts
323
Total Time
Lies!!
EagleRJ said:
I thought Burritos was banned! Are we having a relapse here?

That's news to me! Maybe you are thinking of the other mmmmm burritos (with 5 m's not 6)
 

EagleRJ

Are we there yet?
Joined
Nov 27, 2001
Posts
1,490
Total Time
5800
I must be. I didn't realize there were two of ya!
 

UnAnswerd

Activity Terminated
Joined
Sep 13, 2004
Posts
607
Total Time
NA
Kream926 said:
whats the runway heading?

Yeah, poor subject title. This airport has a runway aligned at 14/32, and 5/23. So technically a landing on 14 might be fine. Nevertheless, I'm surprised the wind wasn't even higher, considering this airport was right in the path of huricane Dennis.
 
Last edited:
Top